sensor_id;sensor_type;location;lat;lon;timestamp;P1;durP1;ratioP1;P2;durP2;ratioP2
72974;SDS011;61166;54.228;37.632;2023-08-12T00:01:22;774.10;;;290.30;;
72974;SDS011;61166;54.228;37.632;2023-08-12T00:03:48;764.07;;;288.17;;
72974;SDS011;61166;54.228;37.632;2023-08-12T00:06:15;765.22;;;288.08;;
72974;SDS011;61166;54.228;37.632;2023-08-12T00:08:42;764.40;;;290.10;;
72974;SDS011;61166;54.228;37.632;2023-08-12T00:11:09;757.72;;;285.63;;
72974;SDS011;61166;54.228;37.632;2023-08-12T00:13:35;756.42;;;283.98;;
72974;SDS011;61166;54.228;37.632;2023-08-12T00:16:02;808.03;;;302.97;;
72974;SDS011;61166;54.228;37.632;2023-08-12T00:18:29;810.70;;;305.40;;
72974;SDS011;61166;54.228;37.632;2023-08-12T00:20:55;808.67;;;305.83;;
72974;SDS011;61166;54.228;37.632;2023-08-12T00:23:22;803.95;;;302.30;;
72974;SDS011;61166;54.228;37.632;2023-08-12T00:25:48;800.22;;;299.55;;
72974;SDS011;61166;54.228;37.632;2023-08-12T00:28:15;797.53;;;300.23;;
72974;SDS011;61166;54.228;37.632;2023-08-12T00:30:42;794.53;;;298.50;;
72974;SDS011;61166;54.228;37.632;2023-08-12T00:33:08;791.85;;;296.45;;
72974;SDS011;61166;54.228;37.632;2023-08-12T00:35:35;796.40;;;300.42;;
72974;SDS011;61166;54.228;37.632;2023-08-12T00:38:01;794.17;;;299.48;;
72974;SDS011;61166;54.228;37.632;2023-08-12T00:40:28;794.80;;;297.47;;
72974;SDS011;61166;54.228;37.632;2023-08-12T00:42:55;800.65;;;301.13;;
72974;SDS011;61166;54.228;37.632;2023-08-12T00:45:21;792.70;;;299.65;;
72974;SDS011;61166;54.228;37.632;2023-08-12T00:47:48;798.70;;;300.75;;
72974;SDS011;61166;54.228;37.632;2023-08-12T00:50:14;792.17;;;298.58;;
72974;SDS011;61166;54.228;37.632;2023-08-12T00:52:41;793.53;;;301.17;;
72974;SDS011;61166;54.228;37.632;2023-08-12T00:55:08;792.00;;;300.15;;
72974;SDS011;61166;54.228;37.632;2023-08-12T00:57:36;795.17;;;301.52;;
72974;SDS011;61166;54.228;37.632;2023-08-12T01:00:02;788.25;;;299.92;;
72974;SDS011;61166;54.228;37.632;2023-08-12T01:02:29;785.42;;;296.30;;
72974;SDS011;61166;54.228;37.632;2023-08-12T01:04:57;786.50;;;296.37;;
72974;SDS011;61166;54.228;37.632;2023-08-12T01:07:24;782.22;;;293.13;;
72974;SDS011;61166;54.228;37.632;2023-08-12T01:09:51;784.03;;;295.58;;
72974;SDS011;61166;54.228;37.632;2023-08-12T01:14:56;778.53;;;293.48;;
72974;SDS011;61166;54.228;37.632;2023-08-12T01:17:28;781.23;;;292.70;;
72974;SDS011;61166;54.228;37.632;2023-08-12T01:19:56;779.00;;;294.17;;
72974;SDS011;61166;54.228;37.632;2023-08-12T01:22:23;779.33;;;293.25;;
72974;SDS011;61166;54.228;37.632;2023-08-12T01:24:50;776.83;;;291.38;;
72974;SDS011;61166;54.228;37.632;2023-08-12T01:27:17;778.63;;;293.02;;
72974;SDS011;61166;54.228;37.632;2023-08-12T01:29:45;776.37;;;291.80;;
72974;SDS011;61166;54.228;37.632;2023-08-12T01:37:31;773.83;;;289.27;;
72974;SDS011;61166;54.228;37.632;2023-08-12T01:40:00;777.15;;;292.38;;
72974;SDS011;61166;54.228;37.632;2023-08-12T01:42:29;775.93;;;290.13;;
72974;SDS011;61166;54.228;37.632;2023-08-12T01:44:56;778.15;;;290.50;;
72974;SDS011;61166;54.228;37.632;2023-08-12T01:47:23;775.83;;;291.45;;
72974;SDS011;61166;54.228;37.632;2023-08-12T01:49:50;776.13;;;291.52;;
72974;SDS011;61166;54.228;37.632;2023-08-12T01:52:16;773.75;;;290.58;;
72974;SDS011;61166;54.228;37.632;2023-08-12T01:54:43;775.60;;;290.97;;
72974;SDS011;61166;54.228;37.632;2023-08-12T01:57:09;776.92;;;289.80;;
72974;SDS011;61166;54.228;37.632;2023-08-12T01:59:37;775.95;;;292.55;;
72974;SDS011;61166;54.228;37.632;2023-08-12T02:02:03;775.53;;;289.20;;
72974;SDS011;61166;54.228;37.632;2023-08-12T02:04:32;779.38;;;290.02;;
72974;SDS011;61166;54.228;37.632;2023-08-12T02:07:00;774.40;;;288.33;;
72974;SDS011;61166;54.228;37.632;2023-08-12T02:09:26;799.22;;;298.02;;
72974;SDS011;61166;54.228;37.632;2023-08-12T02:11:53;806.97;;;299.67;;
72974;SDS011;61166;54.228;37.632;2023-08-12T02:14:19;799.97;;;298.45;;
72974;SDS011;61166;54.228;37.632;2023-08-12T02:16:46;802.55;;;297.02;;
72974;SDS011;61166;54.228;37.632;2023-08-12T02:19:13;800.20;;;295.87;;
72974;SDS011;61166;54.228;37.632;2023-08-12T02:21:39;797.90;;;295.48;;
72974;SDS011;61166;54.228;37.632;2023-08-12T02:24:06;802.60;;;301.17;;
72974;SDS011;61166;54.228;37.632;2023-08-12T02:26:32;802.33;;;298.40;;
72974;SDS011;61166;54.228;37.632;2023-08-12T02:28:59;799.08;;;295.42;;
72974;SDS011;61166;54.228;37.632;2023-08-12T02:31:25;803.30;;;299.10;;
72974;SDS011;61166;54.228;37.632;2023-08-12T02:33:52;800.83;;;301.05;;
72974;SDS011;61166;54.228;37.632;2023-08-12T02:36:18;796.47;;;301.45;;
72974;SDS011;61166;54.228;37.632;2023-08-12T02:38:45;793.47;;;296.25;;
72974;SDS011;61166;54.228;37.632;2023-08-12T02:41:11;792.45;;;297.83;;
72974;SDS011;61166;54.228;37.632;2023-08-12T02:43:38;791.97;;;299.97;;
72974;SDS011;61166;54.228;37.632;2023-08-12T02:46:04;790.90;;;299.15;;
72974;SDS011;61166;54.228;37.632;2023-08-12T02:48:31;789.63;;;295.88;;
72974;SDS011;61166;54.228;37.632;2023-08-12T02:50:57;789.88;;;300.95;;
72974;SDS011;61166;54.228;37.632;2023-08-12T02:53:23;790.13;;;296.40;;
72974;SDS011;61166;54.228;37.632;2023-08-12T02:55:50;787.13;;;298.93;;
72974;SDS011;61166;54.228;37.632;2023-08-12T02:58:16;789.58;;;299.27;;
72974;SDS011;61166;54.228;37.632;2023-08-12T03:00:43;788.38;;;298.58;;
72974;SDS011;61166;54.228;37.632;2023-08-12T03:03:09;790.17;;;298.50;;
72974;SDS011;61166;54.228;37.632;2023-08-12T03:05:36;787.63;;;295.67;;
72974;SDS011;61166;54.228;37.632;2023-08-12T03:08:03;789.17;;;296.83;;
72974;SDS011;61166;54.228;37.632;2023-08-12T03:10:29;793.67;;;297.65;;
72974;SDS011;61166;54.228;37.632;2023-08-12T03:12:56;792.20;;;297.30;;
72974;SDS011;61166;54.228;37.632;2023-08-12T03:15:23;793.40;;;297.02;;
72974;SDS011;61166;54.228;37.632;2023-08-12T03:17:50;785.35;;;291.77;;
72974;SDS011;61166;54.228;37.632;2023-08-12T03:20:16;789.47;;;293.83;;
72974;SDS011;61166;54.228;37.632;2023-08-12T03:22:43;785.45;;;292.08;;
72974;SDS011;61166;54.228;37.632;2023-08-12T03:25:10;787.72;;;292.13;;
72974;SDS011;61166;54.228;37.632;2023-08-12T03:27:36;789.88;;;294.77;;
72974;SDS011;61166;54.228;37.632;2023-08-12T03:30:03;788.17;;;292.60;;
72974;SDS011;61166;54.228;37.632;2023-08-12T03:32:30;788.77;;;292.50;;
72974;SDS011;61166;54.228;37.632;2023-08-12T03:34:56;794.92;;;294.85;;
72974;SDS011;61166;54.228;37.632;2023-08-12T03:37:23;788.00;;;291.42;;
72974;SDS011;61166;54.228;37.632;2023-08-12T03:39:51;787.67;;;290.42;;
72974;SDS011;61166;54.228;37.632;2023-08-12T03:42:17;788.47;;;290.83;;
72974;SDS011;61166;54.228;37.632;2023-08-12T03:44:44;790.73;;;292.83;;
72974;SDS011;61166;54.228;37.632;2023-08-12T03:47:11;791.25;;;293.27;;
72974;SDS011;61166;54.228;37.632;2023-08-12T03:49:37;791.28;;;294.33;;
72974;SDS011;61166;54.228;37.632;2023-08-12T03:52:04;789.55;;;292.25;;
72974;SDS011;61166;54.228;37.632;2023-08-12T03:54:31;791.65;;;291.60;;
72974;SDS011;61166;54.228;37.632;2023-08-12T03:56:57;789.07;;;291.97;;
72974;SDS011;61166;54.228;37.632;2023-08-12T03:59:24;788.63;;;290.55;;
72974;SDS011;61166;54.228;37.632;2023-08-12T04:01:51;793.78;;;292.67;;
72974;SDS011;61166;54.228;37.632;2023-08-12T04:04:17;796.75;;;292.95;;
72974;SDS011;61166;54.228;37.632;2023-08-12T04:06:44;796.35;;;292.13;;
72974;SDS011;61166;54.228;37.632;2023-08-12T04:09:10;792.13;;;291.67;;
72974;SDS011;61166;54.228;37.632;2023-08-12T04:11:37;793.10;;;290.98;;
72974;SDS011;61166;54.228;37.632;2023-08-12T04:14:03;792.92;;;291.17;;
72974;SDS011;61166;54.228;37.632;2023-08-12T04:16:30;797.08;;;292.40;;
72974;SDS011;61166;54.228;37.632;2023-08-12T04:18:56;792.88;;;289.05;;
72974;SDS011;61166;54.228;37.632;2023-08-12T04:21:23;792.17;;;291.43;;
72974;SDS011;61166;54.228;37.632;2023-08-12T04:26:35;793.10;;;292.45;;
72974;SDS011;61166;54.228;37.632;2023-08-12T04:29:01;791.50;;;290.58;;
72974;SDS011;61166;54.228;37.632;2023-08-12T04:31:28;809.42;;;296.60;;
72974;SDS011;61166;54.228;37.632;2023-08-12T04:33:55;803.17;;;296.07;;
72974;SDS011;61166;54.228;37.632;2023-08-12T04:36:21;795.05;;;292.27;;
72974;SDS011;61166;54.228;37.632;2023-08-12T04:38:48;792.47;;;292.17;;
72974;SDS011;61166;54.228;37.632;2023-08-12T04:41:14;788.15;;;288.20;;
72974;SDS011;61166;54.228;37.632;2023-08-12T04:43:41;786.03;;;287.70;;
72974;SDS011;61166;54.228;37.632;2023-08-12T04:46:08;788.10;;;288.10;;
72974;SDS011;61166;54.228;37.632;2023-08-12T04:48:34;785.45;;;289.40;;
72974;SDS011;61166;54.228;37.632;2023-08-12T04:51:01;785.78;;;289.40;;
72974;SDS011;61166;54.228;37.632;2023-08-12T04:53:27;782.97;;;288.60;;
72974;SDS011;61166;54.228;37.632;2023-08-12T04:55:55;780.80;;;288.02;;
72974;SDS011;61166;54.228;37.632;2023-08-12T04:58:22;784.03;;;290.83;;
72974;SDS011;61166;54.228;37.632;2023-08-12T05:00:49;821.35;;;304.83;;
72974;SDS011;61166;54.228;37.632;2023-08-12T05:03:16;821.15;;;303.30;;
72974;SDS011;61166;54.228;37.632;2023-08-12T05:05:43;815.63;;;303.58;;
72974;SDS011;61166;54.228;37.632;2023-08-12T05:08:09;812.03;;;302.52;;
72974;SDS011;61166;54.228;37.632;2023-08-12T05:10:36;807.30;;;300.73;;
72974;SDS011;61166;54.228;37.632;2023-08-12T05:13:02;811.03;;;302.85;;
72974;SDS011;61166;54.228;37.632;2023-08-12T05:15:29;804.63;;;301.90;;
72974;SDS011;61166;54.228;37.632;2023-08-12T05:17:56;796.55;;;297.00;;
72974;SDS011;61166;54.228;37.632;2023-08-12T05:20:22;799.03;;;300.23;;
72974;SDS011;61166;54.228;37.632;2023-08-12T05:22:49;796.50;;;298.97;;
72974;SDS011;61166;54.228;37.632;2023-08-12T05:25:15;794.53;;;299.23;;
72974;SDS011;61166;54.228;37.632;2023-08-12T05:27:42;796.63;;;299.23;;
72974;SDS011;61166;54.228;37.632;2023-08-12T05:30:09;793.47;;;296.63;;
72974;SDS011;61166;54.228;37.632;2023-08-12T05:32:35;788.80;;;294.88;;
72974;SDS011;61166;54.228;37.632;2023-08-12T05:35:02;793.17;;;301.57;;
72974;SDS011;61166;54.228;37.632;2023-08-12T05:37:29;786.00;;;295.10;;
72974;SDS011;61166;54.228;37.632;2023-08-12T05:39:56;789.53;;;297.23;;
72974;SDS011;61166;54.228;37.632;2023-08-12T05:42:22;785.38;;;295.10;;
72974;SDS011;61166;54.228;37.632;2023-08-12T05:44:49;787.72;;;295.77;;
72974;SDS011;61166;54.228;37.632;2023-08-12T05:47:15;786.87;;;297.10;;
72974;SDS011;61166;54.228;37.632;2023-08-12T05:49:42;788.00;;;294.70;;
72974;SDS011;61166;54.228;37.632;2023-08-12T05:52:08;787.00;;;295.90;;
72974;SDS011;61166;54.228;37.632;2023-08-12T05:54:36;840.80;;;315.58;;
72974;SDS011;61166;54.228;37.632;2023-08-12T05:57:03;821.78;;;309.90;;
72974;SDS011;61166;54.228;37.632;2023-08-12T05:59:29;819.00;;;306.90;;
72974;SDS011;61166;54.228;37.632;2023-08-12T06:01:56;828.42;;;314.88;;
72974;SDS011;61166;54.228;37.632;2023-08-12T06:04:23;820.25;;;310.58;;
72974;SDS011;61166;54.228;37.632;2023-08-12T06:06:49;805.40;;;306.08;;
72974;SDS011;61166;54.228;37.632;2023-08-12T06:09:16;766.55;;;289.48;;
72974;SDS011;61166;54.228;37.632;2023-08-12T06:11:42;771.70;;;291.07;;
72974;SDS011;61166;54.228;37.632;2023-08-12T06:14:09;769.25;;;289.85;;
72974;SDS011;61166;54.228;37.632;2023-08-12T06:16:35;765.75;;;288.17;;
72974;SDS011;61166;54.228;37.632;2023-08-12T06:19:02;800.28;;;301.13;;
72974;SDS011;61166;54.228;37.632;2023-08-12T06:21:29;802.45;;;302.58;;
72974;SDS011;61166;54.228;37.632;2023-08-12T06:23:55;798.23;;;304.53;;
72974;SDS011;61166;54.228;37.632;2023-08-12T06:26:22;795.78;;;300.80;;
72974;SDS011;61166;54.228;37.632;2023-08-12T06:28:50;789.25;;;301.30;;
72974;SDS011;61166;54.228;37.632;2023-08-12T06:31:17;787.03;;;298.58;;
72974;SDS011;61166;54.228;37.632;2023-08-12T06:33:44;779.00;;;294.83;;
72974;SDS011;61166;54.228;37.632;2023-08-12T06:36:10;775.33;;;293.43;;
72974;SDS011;61166;54.228;37.632;2023-08-12T06:38:37;790.45;;;300.83;;
72974;SDS011;61166;54.228;37.632;2023-08-12T06:41:03;784.50;;;300.17;;
72974;SDS011;61166;54.228;37.632;2023-08-12T06:43:30;791.03;;;299.70;;
72974;SDS011;61166;54.228;37.632;2023-08-12T06:45:56;784.97;;;296.13;;
72974;SDS011;61166;54.228;37.632;2023-08-12T06:48:23;777.30;;;294.13;;
72974;SDS011;61166;54.228;37.632;2023-08-12T06:50:53;799.22;;;303.45;;
72974;SDS011;61166;54.228;37.632;2023-08-12T06:53:20;771.47;;;292.48;;
72974;SDS011;61166;54.228;37.632;2023-08-12T06:55:47;775.03;;;292.70;;
72974;SDS011;61166;54.228;37.632;2023-08-12T06:58:14;767.88;;;290.67;;
72974;SDS011;61166;54.228;37.632;2023-08-12T07:00:40;767.93;;;288.40;;
72974;SDS011;61166;54.228;37.632;2023-08-12T07:03:07;765.72;;;289.67;;
72974;SDS011;61166;54.228;37.632;2023-08-12T07:05:34;767.88;;;290.83;;
72974;SDS011;61166;54.228;37.632;2023-08-12T07:08:00;767.30;;;290.42;;
72974;SDS011;61166;54.228;37.632;2023-08-12T07:10:27;768.88;;;290.30;;
72974;SDS011;61166;54.228;37.632;2023-08-12T07:12:55;761.53;;;290.13;;
72974;SDS011;61166;54.228;37.632;2023-08-12T07:15:21;762.42;;;289.85;;
72974;SDS011;61166;54.228;37.632;2023-08-12T07:17:48;763.83;;;292.30;;
72974;SDS011;61166;54.228;37.632;2023-08-12T07:20:15;765.83;;;292.80;;
72974;SDS011;61166;54.228;37.632;2023-08-12T07:22:42;767.15;;;292.10;;
72974;SDS011;61166;54.228;37.632;2023-08-12T07:25:08;759.70;;;290.70;;
72974;SDS011;61166;54.228;37.632;2023-08-12T07:27:35;762.40;;;293.48;;
72974;SDS011;61166;54.228;37.632;2023-08-12T07:30:02;762.13;;;291.50;;
72974;SDS011;61166;54.228;37.632;2023-08-12T07:32:29;756.20;;;291.15;;
72974;SDS011;61166;54.228;37.632;2023-08-12T07:34:56;757.05;;;289.05;;
72974;SDS011;61166;54.228;37.632;2023-08-12T07:37:23;764.63;;;288.23;;
72974;SDS011;61166;54.228;37.632;2023-08-12T07:39:49;755.55;;;286.45;;
72974;SDS011;61166;54.228;37.632;2023-08-12T07:42:16;758.33;;;291.67;;
72974;SDS011;61166;54.228;37.632;2023-08-12T07:44:43;757.97;;;289.65;;
72974;SDS011;61166;54.228;37.632;2023-08-12T07:47:09;754.85;;;288.15;;
72974;SDS011;61166;54.228;37.632;2023-08-12T07:49:36;752.17;;;288.03;;
72974;SDS011;61166;54.228;37.632;2023-08-12T07:52:03;757.15;;;287.25;;
72974;SDS011;61166;54.228;37.632;2023-08-12T07:54:29;754.08;;;288.10;;
72974;SDS011;61166;54.228;37.632;2023-08-12T07:56:56;755.78;;;287.92;;
72974;SDS011;61166;54.228;37.632;2023-08-12T07:59:23;757.35;;;287.88;;
72974;SDS011;61166;54.228;37.632;2023-08-12T08:01:49;755.40;;;287.00;;
72974;SDS011;61166;54.228;37.632;2023-08-12T08:04:16;758.00;;;285.50;;
72974;SDS011;61166;54.228;37.632;2023-08-12T08:06:42;764.83;;;289.48;;
72974;SDS011;61166;54.228;37.632;2023-08-12T08:09:09;759.58;;;284.92;;
72974;SDS011;61166;54.228;37.632;2023-08-12T08:11:36;756.67;;;282.95;;
72974;SDS011;61166;54.228;37.632;2023-08-12T08:14:03;754.27;;;282.90;;
72974;SDS011;61166;54.228;37.632;2023-08-12T08:16:29;756.67;;;287.50;;
72974;SDS011;61166;54.228;37.632;2023-08-12T08:18:57;753.55;;;286.90;;
72974;SDS011;61166;54.228;37.632;2023-08-12T08:21:24;752.63;;;285.60;;
72974;SDS011;61166;54.228;37.632;2023-08-12T08:23:51;753.65;;;287.33;;
72974;SDS011;61166;54.228;37.632;2023-08-12T08:26:18;752.77;;;289.37;;
72974;SDS011;61166;54.228;37.632;2023-08-12T08:28:44;754.30;;;291.60;;
72974;SDS011;61166;54.228;37.632;2023-08-12T08:31:11;753.40;;;288.92;;
72974;SDS011;61166;54.228;37.632;2023-08-12T08:33:38;755.80;;;286.23;;
72974;SDS011;61166;54.228;37.632;2023-08-12T08:36:05;755.35;;;288.80;;
72974;SDS011;61166;54.228;37.632;2023-08-12T08:38:32;758.27;;;285.93;;
72974;SDS011;61166;54.228;37.632;2023-08-12T08:40:58;766.55;;;291.77;;
72974;SDS011;61166;54.228;37.632;2023-08-12T08:43:26;773.95;;;294.17;;
72974;SDS011;61166;54.228;37.632;2023-08-12T08:45:53;768.75;;;288.45;;
72974;SDS011;61166;54.228;37.632;2023-08-12T08:48:20;779.20;;;290.20;;
72974;SDS011;61166;54.228;37.632;2023-08-12T08:50:48;786.77;;;290.63;;
72974;SDS011;61166;54.228;37.632;2023-08-12T08:53:15;791.17;;;291.00;;
72974;SDS011;61166;54.228;37.632;2023-08-12T08:55:42;789.80;;;292.05;;
72974;SDS011;61166;54.228;37.632;2023-08-12T08:58:09;787.40;;;289.85;;
72974;SDS011;61166;54.228;37.632;2023-08-12T09:00:36;785.58;;;286.65;;
72974;SDS011;61166;54.228;37.632;2023-08-12T09:03:05;783.63;;;288.00;;
72974;SDS011;61166;54.228;37.632;2023-08-12T09:05:33;784.15;;;285.75;;
72974;SDS011;61166;54.228;37.632;2023-08-12T09:08:01;778.72;;;286.17;;
72974;SDS011;61166;54.228;37.632;2023-08-12T09:10:28;782.55;;;287.00;;
72974;SDS011;61166;54.228;37.632;2023-08-12T09:12:56;785.65;;;288.02;;
72974;SDS011;61166;54.228;37.632;2023-08-12T09:15:23;787.23;;;289.57;;
72974;SDS011;61166;54.228;37.632;2023-08-12T09:17:50;788.17;;;288.85;;
72974;SDS011;61166;54.228;37.632;2023-08-12T09:20:16;788.90;;;288.65;;
72974;SDS011;61166;54.228;37.632;2023-08-12T09:22:43;787.08;;;287.65;;
72974;SDS011;61166;54.228;37.632;2023-08-12T09:25:10;786.63;;;288.25;;
72974;SDS011;61166;54.228;37.632;2023-08-12T09:27:37;787.07;;;288.10;;
72974;SDS011;61166;54.228;37.632;2023-08-12T09:30:03;782.50;;;285.73;;
72974;SDS011;61166;54.228;37.632;2023-08-12T09:32:31;783.70;;;284.60;;
72974;SDS011;61166;54.228;37.632;2023-08-12T09:34:57;786.45;;;284.58;;
72974;SDS011;61166;54.228;37.632;2023-08-12T09:37:24;788.17;;;285.70;;
72974;SDS011;61166;54.228;37.632;2023-08-12T09:39:51;785.30;;;285.60;;
72974;SDS011;61166;54.228;37.632;2023-08-12T09:42:18;780.88;;;282.90;;
72974;SDS011;61166;54.228;37.632;2023-08-12T09:44:45;778.72;;;281.98;;
72974;SDS011;61166;54.228;37.632;2023-08-12T09:47:12;781.60;;;283.30;;
72974;SDS011;61166;54.228;37.632;2023-08-12T09:49:39;783.28;;;285.55;;
72974;SDS011;61166;54.228;37.632;2023-08-12T09:52:06;779.30;;;282.70;;
72974;SDS011;61166;54.228;37.632;2023-08-12T09:54:34;777.58;;;284.48;;
72974;SDS011;61166;54.228;37.632;2023-08-12T09:57:02;779.22;;;285.02;;
72974;SDS011;61166;54.228;37.632;2023-08-12T09:59:32;773.50;;;284.88;;
72974;SDS011;61166;54.228;37.632;2023-08-12T10:01:59;776.38;;;290.38;;
72974;SDS011;61166;54.228;37.632;2023-08-12T10:04:27;786.60;;;291.43;;
72974;SDS011;61166;54.228;37.632;2023-08-12T10:06:55;791.10;;;300.77;;
72974;SDS011;61166;54.228;37.632;2023-08-12T10:09:21;799.40;;;305.65;;
72974;SDS011;61166;54.228;37.632;2023-08-12T10:11:49;788.80;;;299.27;;
72974;SDS011;61166;54.228;37.632;2023-08-12T10:14:15;791.40;;;298.70;;
72974;SDS011;61166;54.228;37.632;2023-08-12T10:16:42;787.53;;;301.17;;
72974;SDS011;61166;54.228;37.632;2023-08-12T10:19:11;783.50;;;298.80;;
72974;SDS011;61166;54.228;37.632;2023-08-12T10:21:38;785.17;;;296.38;;
72974;SDS011;61166;54.228;37.632;2023-08-12T10:24:06;780.40;;;294.90;;
72974;SDS011;61166;54.228;37.632;2023-08-12T10:26:33;780.60;;;296.50;;
72974;SDS011;61166;54.228;37.632;2023-08-12T10:29:00;778.73;;;291.67;;
72974;SDS011;61166;54.228;37.632;2023-08-12T10:31:26;783.42;;;294.33;;
72974;SDS011;61166;54.228;37.632;2023-08-12T10:33:53;779.65;;;295.02;;
72974;SDS011;61166;54.228;37.632;2023-08-12T10:36:20;776.40;;;294.42;;
72974;SDS011;61166;54.228;37.632;2023-08-12T10:38:47;778.22;;;294.00;;
72974;SDS011;61166;54.228;37.632;2023-08-12T10:41:17;778.20;;;294.83;;
72974;SDS011;61166;54.228;37.632;2023-08-12T10:43:55;776.55;;;293.95;;
72974;SDS011;61166;54.228;37.632;2023-08-12T10:46:29;793.85;;;301.88;;
72974;SDS011;61166;54.228;37.632;2023-08-12T10:49:04;798.80;;;301.58;;
72974;SDS011;61166;54.228;37.632;2023-08-12T10:54:26;777.73;;;294.33;;
72974;SDS011;61166;54.228;37.632;2023-08-12T11:02:18;790.20;;;299.55;;
72974;SDS011;61166;54.228;37.632;2023-08-12T11:04:48;845.83;;;313.65;;
72974;SDS011;61166;54.228;37.632;2023-08-12T11:07:16;784.13;;;291.73;;
72974;SDS011;61166;54.228;37.632;2023-08-12T11:09:42;783.85;;;293.10;;
72974;SDS011;61166;54.228;37.632;2023-08-12T11:12:09;852.55;;;321.52;;
72974;SDS011;61166;54.228;37.632;2023-08-12T11:14:49;795.63;;;298.40;;
72974;SDS011;61166;54.228;37.632;2023-08-12T11:17:19;798.53;;;299.77;;
72974;SDS011;61166;54.228;37.632;2023-08-12T11:19:46;898.53;;;336.10;;
72974;SDS011;61166;54.228;37.632;2023-08-12T11:22:13;810.13;;;303.48;;
72974;SDS011;61166;54.228;37.632;2023-08-12T11:24:40;824.42;;;308.35;;
72974;SDS011;61166;54.228;37.632;2023-08-12T11:27:10;820.22;;;306.17;;
72974;SDS011;61166;54.228;37.632;2023-08-12T11:29:37;731.67;;;276.55;;
72974;SDS011;61166;54.228;37.632;2023-08-12T11:32:03;792.80;;;296.90;;
72974;SDS011;61166;54.228;37.632;2023-08-12T11:34:31;837.88;;;313.05;;
72974;SDS011;61166;54.228;37.632;2023-08-12T11:36:57;852.67;;;320.70;;
72974;SDS011;61166;54.228;37.632;2023-08-12T11:39:24;845.85;;;317.52;;
72974;SDS011;61166;54.228;37.632;2023-08-12T11:41:51;846.33;;;320.50;;
72974;SDS011;61166;54.228;37.632;2023-08-12T11:44:20;861.87;;;323.93;;
72974;SDS011;61166;54.228;37.632;2023-08-12T11:46:47;864.55;;;326.45;;
72974;SDS011;61166;54.228;37.632;2023-08-12T11:49:13;857.83;;;325.20;;
72974;SDS011;61166;54.228;37.632;2023-08-12T11:51:40;854.95;;;322.27;;
72974;SDS011;61166;54.228;37.632;2023-08-12T11:54:07;850.10;;;318.95;;
72974;SDS011;61166;54.228;37.632;2023-08-12T11:56:33;839.00;;;313.73;;
72974;SDS011;61166;54.228;37.632;2023-08-12T11:59:00;848.20;;;316.45;;
72974;SDS011;61166;54.228;37.632;2023-08-12T12:01:26;848.00;;;319.35;;
72974;SDS011;61166;54.228;37.632;2023-08-12T12:03:53;849.08;;;317.90;;
72974;SDS011;61166;54.228;37.632;2023-08-12T12:09:18;835.50;;;313.50;;
72974;SDS011;61166;54.228;37.632;2023-08-12T12:11:44;849.83;;;319.20;;
72974;SDS011;61166;54.228;37.632;2023-08-12T12:14:11;846.90;;;316.73;;
72974;SDS011;61166;54.228;37.632;2023-08-12T12:19:04;856.45;;;324.15;;
72974;SDS011;61166;54.228;37.632;2023-08-12T12:21:30;855.83;;;322.37;;
72974;SDS011;61166;54.228;37.632;2023-08-12T12:23:57;858.60;;;324.90;;
72974;SDS011;61166;54.228;37.632;2023-08-12T12:26:23;854.60;;;324.70;;
72974;SDS011;61166;54.228;37.632;2023-08-12T12:28:49;855.00;;;322.48;;
72974;SDS011;61166;54.228;37.632;2023-08-12T12:31:16;862.50;;;326.10;;
72974;SDS011;61166;54.228;37.632;2023-08-12T12:33:43;844.47;;;318.73;;
72974;SDS011;61166;54.228;37.632;2023-08-12T12:36:09;838.97;;;317.95;;
72974;SDS011;61166;54.228;37.632;2023-08-12T12:38:36;838.08;;;316.70;;
72974;SDS011;61166;54.228;37.632;2023-08-12T12:41:02;846.60;;;322.85;;
72974;SDS011;61166;54.228;37.632;2023-08-12T12:43:29;849.35;;;321.90;;
72974;SDS011;61166;54.228;37.632;2023-08-12T12:45:55;857.67;;;323.23;;
72974;SDS011;61166;54.228;37.632;2023-08-12T12:48:22;868.25;;;328.65;;
72974;SDS011;61166;54.228;37.632;2023-08-12T12:50:48;873.22;;;331.52;;
72974;SDS011;61166;54.228;37.632;2023-08-12T12:53:15;859.10;;;322.92;;
72974;SDS011;61166;54.228;37.632;2023-08-12T12:55:41;867.00;;;325.40;;
72974;SDS011;61166;54.228;37.632;2023-08-12T12:58:08;872.93;;;326.83;;
72974;SDS011;61166;54.228;37.632;2023-08-12T13:00:37;875.17;;;328.58;;
72974;SDS011;61166;54.228;37.632;2023-08-12T13:03:04;870.42;;;326.08;;
72974;SDS011;61166;54.228;37.632;2023-08-12T13:05:30;870.65;;;323.70;;
72974;SDS011;61166;54.228;37.632;2023-08-12T13:07:57;875.35;;;325.65;;
72974;SDS011;61166;54.228;37.632;2023-08-12T13:10:23;881.47;;;324.50;;
72974;SDS011;61166;54.228;37.632;2023-08-12T13:12:50;868.60;;;318.05;;
72974;SDS011;61166;54.228;37.632;2023-08-12T13:15:16;879.65;;;325.38;;
72974;SDS011;61166;54.228;37.632;2023-08-12T13:17:43;886.33;;;324.45;;
72974;SDS011;61166;54.228;37.632;2023-08-12T13:20:09;883.22;;;324.45;;
72974;SDS011;61166;54.228;37.632;2023-08-12T13:22:36;882.97;;;323.83;;
72974;SDS011;61166;54.228;37.632;2023-08-12T13:25:02;879.08;;;323.85;;
72974;SDS011;61166;54.228;37.632;2023-08-12T13:27:29;885.47;;;324.92;;
72974;SDS011;61166;54.228;37.632;2023-08-12T13:29:56;890.65;;;329.38;;
72974;SDS011;61166;54.228;37.632;2023-08-12T13:32:22;872.88;;;320.65;;
72974;SDS011;61166;54.228;37.632;2023-08-12T13:34:48;870.27;;;321.83;;
72974;SDS011;61166;54.228;37.632;2023-08-12T13:37:15;872.67;;;322.52;;
72974;SDS011;61166;54.228;37.632;2023-08-12T13:39:41;872.50;;;324.58;;
72974;SDS011;61166;54.228;37.632;2023-08-12T13:42:08;880.92;;;328.25;;
72974;SDS011;61166;54.228;37.632;2023-08-12T13:44:34;870.03;;;323.92;;
72974;SDS011;61166;54.228;37.632;2023-08-12T13:47:01;859.73;;;320.30;;
72974;SDS011;61166;54.228;37.632;2023-08-12T13:49:27;880.25;;;325.52;;
72974;SDS011;61166;54.228;37.632;2023-08-12T13:51:54;883.15;;;328.23;;
72974;SDS011;61166;54.228;37.632;2023-08-12T13:54:21;877.95;;;326.15;;
72974;SDS011;61166;54.228;37.632;2023-08-12T13:56:47;874.78;;;323.75;;
72974;SDS011;61166;54.228;37.632;2023-08-12T13:59:14;871.33;;;322.03;;
72974;SDS011;61166;54.228;37.632;2023-08-12T14:01:40;868.70;;;322.63;;
72974;SDS011;61166;54.228;37.632;2023-08-12T14:04:09;873.70;;;324.73;;
72974;SDS011;61166;54.228;37.632;2023-08-12T14:06:35;868.20;;;320.35;;